createdAt,value
2023-05-10T00:02:11.641Z,12.10
2023-05-10T00:04:39.764Z,12.12
2023-05-10T00:07:07.099Z,12.12
2023-05-10T00:09:34.357Z,12.11
2023-05-10T00:12:01.614Z,12.08
2023-05-10T00:14:29.454Z,12.08
2023-05-10T00:16:58.029Z,12.05
2023-05-10T00:19:25.509Z,12.04
2023-05-10T00:21:54.505Z,12.04
2023-05-10T00:24:22.916Z,12.02
2023-05-10T00:26:51.129Z,12.00
2023-05-10T00:29:19.508Z,11.99
2023-05-10T00:31:55.654Z,11.96
2023-05-10T00:34:23.803Z,11.94
2023-05-10T00:36:52.760Z,11.94
2023-05-10T00:39:20.514Z,11.96
2023-05-10T00:41:48.177Z,11.93
2023-05-10T00:44:17.112Z,11.93
2023-05-10T00:46:48.445Z,11.91
2023-05-10T00:49:17.907Z,11.90
2023-05-10T00:51:47.897Z,11.88
2023-05-10T00:54:18.192Z,11.84
2023-05-10T00:56:51.432Z,11.83
2023-05-10T00:59:21.420Z,11.83
2023-05-10T01:01:50.688Z,11.83
2023-05-10T01:04:18.790Z,11.83
2023-05-10T01:06:47.701Z,11.83
2023-05-10T01:09:16.088Z,11.83
2023-05-10T01:11:44.115Z,11.85
2023-05-10T01:14:12.962Z,11.86
2023-05-10T01:16:46.459Z,11.88
2023-05-10T01:19:40.775Z,11.85
2023-05-10T01:23:05.159Z,11.86
2023-05-10T01:26:25.087Z,11.86
2023-05-10T01:29:46.318Z,11.83
2023-05-10T01:32:51.614Z,11.85
2023-05-10T01:35:33.572Z,11.86
2023-05-10T01:38:41.447Z,11.85
2023-05-10T01:41:55.098Z,11.84
2023-05-10T01:45:09.264Z,11.86
2023-05-10T01:47:57.825Z,11.85
2023-05-10T01:50:34.172Z,11.86
2023-05-10T01:53:09.102Z,11.87
2023-05-10T01:55:48.580Z,11.85
2023-05-10T01:58:30.657Z,11.87
2023-05-10T02:01:06.811Z,11.91
2023-05-10T02:03:41.253Z,11.92
2023-05-10T02:06:16.061Z,11.90
2023-05-10T02:08:48.288Z,11.95
2023-05-10T02:11:20.370Z,11.96
2023-05-10T02:13:56.555Z,11.97
2023-05-10T02:16:32.145Z,11.97
2023-05-10T02:19:05.185Z,11.96
2023-05-10T02:21:35.554Z,11.92
2023-05-10T02:24:07.198Z,11.94
2023-05-10T02:26:39.377Z,11.94
2023-05-10T02:29:13.319Z,11.93
2023-05-10T02:31:53.099Z,11.96
2023-05-10T02:34:24.825Z,11.96
2023-05-10T02:36:58.332Z,11.96
2023-05-10T02:39:39.597Z,11.99
2023-05-10T02:42:07.969Z,12.00
2023-05-10T02:44:42.970Z,12.01
2023-05-10T02:47:15.046Z,12.00
2023-05-10T02:49:50.611Z,12.00
2023-05-10T02:52:31.247Z,12.01
2023-05-10T02:55:06.609Z,12.01
2023-05-10T02:57:43.398Z,12.02
2023-05-10T03:00:15.805Z,12.01
2023-05-10T03:02:43.926Z,12.02
2023-05-10T03:05:11.809Z,12.04
2023-05-10T03:07:40.001Z,12.04
2023-05-10T03:10:14.280Z,12.03
2023-05-10T03:13:38.757Z,12.05
2023-05-10T03:16:17.082Z,12.05
2023-05-10T03:19:19.449Z,12.08
2023-05-10T03:22:06.867Z,12.08
2023-05-10T03:24:39.042Z,12.10
2023-05-10T03:27:09.459Z,12.11
2023-05-10T03:29:40.798Z,12.11
2023-05-10T03:32:09.235Z,12.09
2023-05-10T03:34:46.892Z,12.12
2023-05-10T03:37:17.166Z,12.14
2023-05-10T03:39:44.488Z,12.13
2023-05-10T03:42:13.019Z,12.11
2023-05-10T03:44:41.439Z,12.12
2023-05-10T03:47:10.002Z,12.13
2023-05-10T03:49:39.390Z,12.14
2023-05-10T03:52:07.550Z,12.15
2023-05-10T03:54:36.444Z,12.16
2023-05-10T03:57:04.908Z,12.14
2023-05-10T03:59:33.653Z,12.17
2023-05-10T04:02:01.103Z,12.17
2023-05-10T04:04:28.562Z,12.17
2023-05-10T04:06:59.180Z,12.19
2023-05-10T04:09:27.008Z,12.17
2023-05-10T04:11:55.415Z,12.19
2023-05-10T04:14:22.671Z,12.20
2023-05-10T04:16:50.165Z,12.19
2023-05-10T04:19:18.224Z,12.21
2023-05-10T04:21:49.882Z,12.22
2023-05-10T04:24:18.190Z,12.22
2023-05-10T04:26:48.741Z,12.23
2023-05-10T04:29:19.109Z,12.22
2023-05-10T04:31:49.835Z,12.22
2023-05-10T04:34:17.306Z,12.24
2023-05-10T04:36:45.187Z,12.24
2023-05-10T04:39:12.994Z,12.25
2023-05-10T04:41:56.058Z,12.25
2023-05-10T04:44:28.650Z,12.24
2023-05-10T04:47:00.161Z,12.19
2023-05-10T04:49:31.681Z,12.21
2023-05-10T04:52:02.304Z,12.17
2023-05-10T04:54:30.278Z,12.17
2023-05-10T04:56:57.679Z,12.12
2023-05-10T04:59:25.722Z,12.14
2023-05-10T05:01:53.193Z,12.10
2023-05-10T05:04:24.550Z,12.07
2023-05-10T05:06:53.764Z,12.01
2023-05-10T05:09:24.003Z,11.98
2023-05-10T05:11:52.023Z,11.92
2023-05-10T05:14:21.887Z,11.94
2023-05-10T05:16:49.476Z,11.91
2023-05-10T05:19:17.060Z,11.88
2023-05-10T05:21:45.750Z,11.91
2023-05-10T05:24:13.678Z,11.90
2023-05-10T05:26:41.596Z,11.90
2023-05-10T05:29:09.275Z,11.90
2023-05-10T05:31:36.755Z,11.90
2023-05-10T05:34:04.411Z,11.89
2023-05-10T05:36:39.470Z,11.87
2023-05-10T05:39:08.454Z,11.90
2023-05-10T05:41:37.548Z,11.87
2023-05-10T05:44:05.074Z,11.90
2023-05-10T05:46:33.132Z,11.92
2023-05-10T05:49:01.241Z,11.92
2023-05-10T05:51:30.500Z,11.93
2023-05-10T05:53:58.304Z,11.97
2023-05-10T05:56:25.953Z,12.01
2023-05-10T05:58:53.781Z,12.04
2023-05-10T06:01:21.612Z,12.09
2023-05-10T06:03:51.874Z,12.13
2023-05-10T06:06:21.248Z,12.14
2023-05-10T06:08:49.076Z,12.24
2023-05-10T06:11:17.490Z,12.22
2023-05-10T06:13:45.799Z,12.29
2023-05-10T06:16:14.988Z,12.29
2023-05-10T06:18:42.649Z,12.33
2023-05-10T06:21:10.504Z,12.36
2023-05-10T06:23:37.997Z,12.42
2023-05-10T06:26:05.898Z,12.41
2023-05-10T06:28:34.577Z,12.47
2023-05-10T06:31:06.026Z,12.46
2023-05-10T06:33:35.568Z,12.50
2023-05-10T06:36:05.289Z,12.49
2023-05-10T06:38:35.056Z,12.50
2023-05-10T06:41:03.378Z,12.48
2023-05-10T06:43:30.716Z,12.46
2023-05-10T06:45:58.729Z,12.47
2023-05-10T06:48:34.897Z,12.47
2023-05-10T06:51:16.550Z,12.47
2023-05-10T06:53:45.176Z,12.46
2023-05-10T06:56:15.786Z,12.47
2023-05-10T06:58:44.203Z,12.49
2023-05-10T07:01:11.746Z,12.51
2023-05-10T07:03:41.526Z,12.53
2023-05-10T07:06:29.540Z,12.54
2023-05-10T07:09:00.549Z,12.56
2023-05-10T07:11:28.096Z,12.61
2023-05-10T07:13:56.465Z,12.63
2023-05-10T07:16:24.060Z,12.66
2023-05-10T07:18:51.923Z,12.68
2023-05-10T07:21:24.901Z,12.70
2023-05-10T07:23:54.468Z,12.71
2023-05-10T07:26:21.978Z,12.73
2023-05-10T07:28:50.565Z,12.73
2023-05-10T07:31:17.877Z,12.71
2023-05-10T07:33:45.177Z,12.74
2023-05-10T07:36:12.767Z,12.73
2023-05-10T07:38:41.144Z,12.76
2023-05-10T07:41:08.459Z,12.73
2023-05-10T07:43:35.967Z,12.70
2023-05-10T07:46:04.029Z,12.67
2023-05-10T07:48:31.784Z,12.63
2023-05-10T07:51:00.044Z,12.60
2023-05-10T07:53:28.582Z,12.56
2023-05-10T07:55:59.620Z,12.54
2023-05-10T07:58:27.866Z,12.55
2023-05-10T08:01:02.815Z,12.54
2023-05-10T08:03:30.270Z,12.59
2023-05-10T08:05:58.165Z,12.58
2023-05-10T08:08:25.492Z,12.60
2023-05-10T08:10:52.964Z,12.63
2023-05-10T08:13:28.462Z,12.66
2023-05-10T08:15:56.015Z,12.70
2023-05-10T08:18:34.711Z,12.73
2023-05-10T08:21:04.197Z,12.73
2023-05-10T08:23:34.377Z,12.81
2023-05-10T08:26:02.014Z,12.84
2023-05-10T08:28:29.590Z,12.87
2023-05-10T08:30:59.370Z,12.93
2023-05-10T08:33:26.928Z,12.94
2023-05-10T08:35:54.391Z,13.03
2023-05-10T08:38:22.644Z,13.09
2023-05-10T08:40:57.416Z,13.15
2023-05-10T08:43:30.830Z,13.21
2023-05-10T08:46:06.526Z,13.24
2023-05-10T08:48:36.818Z,13.30
2023-05-10T08:51:05.772Z,13.38
2023-05-10T08:53:38.225Z,13.44
2023-05-10T08:56:09.326Z,13.53
2023-05-10T08:58:39.369Z,13.58
2023-05-10T09:01:08.557Z,13.61
2023-05-10T09:03:39.884Z,13.58
2023-05-10T09:06:08.641Z,13.57
2023-05-10T09:08:42.154Z,13.55
2023-05-10T09:11:23.278Z,13.59
2023-05-10T09:13:53.605Z,13.56
2023-05-10T09:16:24.589Z,13.53
2023-05-10T09:18:53.174Z,13.51
2023-05-10T09:21:22.029Z,13.52
2023-05-10T09:23:51.185Z,13.52
2023-05-10T09:26:24.444Z,13.54
2023-05-10T09:29:00.195Z,13.54
2023-05-10T09:31:59.214Z,13.53
2023-05-10T09:34:35.812Z,13.51
2023-05-10T09:37:06.967Z,13.49
2023-05-10T09:39:36.094Z,13.49
2023-05-10T09:42:14.074Z,13.49
2023-05-10T09:44:42.514Z,13.57
2023-05-10T09:47:11.005Z,13.62
2023-05-10T09:49:38.580Z,13.71
2023-05-10T09:52:08.980Z,13.77
2023-05-10T09:54:39.099Z,13.76
2023-05-10T09:57:23.057Z,13.84
2023-05-10T09:59:51.742Z,13.93
2023-05-10T10:02:22.771Z,13.96
2023-05-10T10:04:52.181Z,14.01
2023-05-10T10:07:28.983Z,14.03
2023-05-10T10:09:56.546Z,14.02
2023-05-10T10:12:23.874Z,14.12
2023-05-10T10:14:54.712Z,14.13
2023-05-10T10:17:24.528Z,14.19
2023-05-10T10:19:52.288Z,14.21
2023-05-10T10:22:21.068Z,14.20
2023-05-10T10:24:49.750Z,14.21
2023-05-10T10:27:47.536Z,14.22
2023-05-10T10:30:31.019Z,14.25
2023-05-10T10:33:56.888Z,14.25
2023-05-10T10:36:28.169Z,14.23
2023-05-10T10:39:03.909Z,14.23
2023-05-10T10:41:45.439Z,14.20
2023-05-10T10:44:36.973Z,14.13
2023-05-10T10:47:34.311Z,13.98
2023-05-10T10:50:09.228Z,13.85
2023-05-10T10:52:47.342Z,13.78
2023-05-10T10:55:30.582Z,13.67
2023-05-10T10:58:03.355Z,13.67
2023-05-10T11:00:42.919Z,13.74
2023-05-10T11:03:16.152Z,13.80
2023-05-10T11:05:51.049Z,13.90
2023-05-10T11:08:38.243Z,13.88
2023-05-10T11:11:15.008Z,13.81
2023-05-10T11:14:08.651Z,13.70
2023-05-10T11:16:47.926Z,13.70
2023-05-10T11:19:22.046Z,13.64
2023-05-10T11:22:15.721Z,13.62
2023-05-10T11:25:09.998Z,13.62
2023-05-10T11:27:39.865Z,13.66
2023-05-10T11:30:15.978Z,13.70
2023-05-10T11:32:57.928Z,13.79
2023-05-10T11:35:31.948Z,13.92
2023-05-10T11:38:03.602Z,13.97
2023-05-10T11:40:32.775Z,14.01
2023-05-10T11:43:13.612Z,14.07
2023-05-10T11:45:46.654Z,14.06
2023-05-10T11:48:19.094Z,14.01
2023-05-10T11:50:47.782Z,14.04
2023-05-10T11:53:27.000Z,14.11
2023-05-10T11:56:04.139Z,14.42
2023-05-10T11:58:39.990Z,14.94
2023-05-10T12:01:11.433Z,15.44
2023-05-10T12:10:41.290Z,15.48
2023-05-10T12:13:22.283Z,15.40
2023-05-10T12:15:52.891Z,15.26
2023-05-10T12:18:26.730Z,15.14
2023-05-10T12:20:55.610Z,15.06
2023-05-10T12:23:24.545Z,15.00
2023-05-10T12:25:55.746Z,14.94
2023-05-10T12:28:24.094Z,14.92
2023-05-10T12:30:55.662Z,14.86
2023-05-10T12:33:23.565Z,14.80
2023-05-10T12:35:56.272Z,14.76
2023-05-10T12:38:49.143Z,14.72
2023-05-10T12:41:28.232Z,14.68
2023-05-10T12:47:04.196Z,14.61
2023-05-10T12:49:32.508Z,14.52
2023-05-10T12:52:01.314Z,14.48
2023-05-10T12:54:33.961Z,14.43
2023-05-10T12:57:01.690Z,14.36
2023-05-10T12:59:37.960Z,14.31
2023-05-10T13:02:23.177Z,14.25
2023-05-10T13:04:52.538Z,14.21
2023-05-10T13:07:21.056Z,14.16
2023-05-10T13:09:49.235Z,14.02
2023-05-10T13:12:18.612Z,13.89
2023-05-10T13:14:56.214Z,13.72
2023-05-10T13:17:27.317Z,13.62
2023-05-10T13:19:57.159Z,13.45
2023-05-10T13:22:39.237Z,13.27
2023-05-10T13:25:14.152Z,13.13
2023-05-10T13:27:45.917Z,13.02
2023-05-10T13:30:17.548Z,12.93
2023-05-10T13:32:46.686Z,12.92
2023-05-10T13:35:14.074Z,12.88
2023-05-10T13:37:41.844Z,12.87
2023-05-10T13:40:10.226Z,12.89
2023-05-10T13:42:38.840Z,12.95
2023-05-10T13:45:08.228Z,13.05
2023-05-10T13:47:35.555Z,13.20
2023-05-10T13:50:11.861Z,13.33
2023-05-10T13:52:39.361Z,13.49
2023-05-10T13:55:08.605Z,13.65
2023-05-10T13:57:38.303Z,14.15
2023-05-10T14:00:11.493Z,14.41
2023-05-10T14:02:38.962Z,14.43
2023-05-10T14:05:18.777Z,14.33
2023-05-10T14:07:52.475Z,14.28
2023-05-10T14:10:19.760Z,14.31
2023-05-10T14:12:47.675Z,14.33
2023-05-10T14:15:15.209Z,14.49
2023-05-10T14:17:51.688Z,14.81
2023-05-10T14:20:19.715Z,14.95
2023-05-10T14:22:47.484Z,14.90
2023-05-10T14:25:16.561Z,14.82
2023-05-10T14:27:55.607Z,14.80
2023-05-10T14:30:24.926Z,14.75
2023-05-10T14:32:53.713Z,14.71
2023-05-10T14:35:26.736Z,14.65
2023-05-10T14:38:00.498Z,14.57
2023-05-10T14:40:29.700Z,14.51
2023-05-10T14:42:57.377Z,14.48
2023-05-10T14:45:25.049Z,14.42
2023-05-10T14:47:57.302Z,14.37
2023-05-10T14:50:37.354Z,14.34
2023-05-10T14:56:04.841Z,14.30
2023-05-10T14:58:38.615Z,14.29
2023-05-10T15:01:15.312Z,14.27
2023-05-10T15:03:43.698Z,14.30
2023-05-10T15:06:12.308Z,14.28
2023-05-10T15:08:39.986Z,14.30
2023-05-10T15:11:07.888Z,14.32
2023-05-10T15:13:36.805Z,14.34
2023-05-10T15:16:08.336Z,14.36
2023-05-10T15:18:35.774Z,14.32
2023-05-10T15:21:03.232Z,14.25
2023-05-10T15:23:38.822Z,14.23
2023-05-10T15:26:06.472Z,14.19
2023-05-10T15:28:34.644Z,14.16
2023-05-10T15:31:02.220Z,14.15
2023-05-10T15:33:31.653Z,14.11
2023-05-10T15:35:59.291Z,14.10
2023-05-10T15:38:29.204Z,14.04
2023-05-10T15:41:01.377Z,14.02
2023-05-10T15:43:28.877Z,14.00
2023-05-10T15:45:57.714Z,14.02
2023-05-10T15:48:25.071Z,14.00
2023-05-10T15:50:54.302Z,13.95
2023-05-10T15:53:22.993Z,13.89
2023-05-10T15:55:51.100Z,13.82
2023-05-10T15:58:21.169Z,13.78
2023-05-10T16:00:49.497Z,13.73
2023-05-10T16:03:18.463Z,13.68
2023-05-10T16:05:47.078Z,13.68
2023-05-10T16:08:14.995Z,13.68
2023-05-10T16:10:44.884Z,13.70
2023-05-10T16:13:19.824Z,13.68
2023-05-10T16:15:47.696Z,13.67
2023-05-10T16:18:17.165Z,13.68
2023-05-10T16:20:50.528Z,13.68
2023-05-10T16:23:18.040Z,13.70
2023-05-10T16:25:51.686Z,13.71
2023-05-10T16:28:21.322Z,13.71
2023-05-10T16:30:50.600Z,13.71
2023-05-10T16:33:18.839Z,13.72
2023-05-10T16:35:47.150Z,13.70
2023-05-10T16:38:15.147Z,13.68
2023-05-10T16:40:48.894Z,13.68
2023-05-10T16:43:19.539Z,13.68
2023-05-10T16:45:49.230Z,13.71
2023-05-10T16:48:18.772Z,13.74
2023-05-10T16:51:11.815Z,13.75
2023-05-10T16:53:40.764Z,13.83
2023-05-10T16:56:11.264Z,13.85
2023-05-10T16:58:40.653Z,13.85
2023-05-10T17:01:28.282Z,13.86
2023-05-10T17:03:58.394Z,13.88
2023-05-10T17:06:29.023Z,13.90
2023-05-10T17:08:58.741Z,13.91
2023-05-10T17:11:30.038Z,13.90
2023-05-10T17:14:03.640Z,13.89
2023-05-10T17:16:34.987Z,13.84
2023-05-10T17:19:02.793Z,13.79
2023-05-10T17:21:32.070Z,13.80
2023-05-10T17:24:04.022Z,13.77
2023-05-10T17:26:36.148Z,13.71
2023-05-10T17:29:16.512Z,13.70
2023-05-10T17:31:44.350Z,13.65
2023-05-10T17:34:14.430Z,13.59
2023-05-10T17:36:42.837Z,13.57
2023-05-10T17:39:11.645Z,13.55
2023-05-10T17:41:48.799Z,13.57
2023-05-10T17:44:16.960Z,13.61
2023-05-10T17:46:45.324Z,13.63
2023-05-10T17:49:15.643Z,13.65
2023-05-10T17:51:44.681Z,13.64
2023-05-10T17:54:13.906Z,13.66
2023-05-10T17:56:43.473Z,13.63
2023-05-10T17:59:13.681Z,13.60
2023-05-10T18:01:42.270Z,13.59
2023-05-10T18:04:09.685Z,13.49
2023-05-10T18:06:40.146Z,13.35
2023-05-10T18:09:08.494Z,13.17
2023-05-10T18:11:36.842Z,12.90
2023-05-10T18:14:04.997Z,12.64
2023-05-10T18:16:33.241Z,12.46
2023-05-10T18:19:11.449Z,12.29
2023-05-10T18:21:42.873Z,12.21
2023-05-10T18:24:16.747Z,12.12
2023-05-10T18:26:46.885Z,12.06
2023-05-10T18:29:14.760Z,12.01
2023-05-10T18:31:47.291Z,11.97
2023-05-10T18:34:16.155Z,11.94
2023-05-10T18:36:44.338Z,11.91
2023-05-10T18:39:17.609Z,11.88
2023-05-10T18:42:06.257Z,11.83
2023-05-10T18:44:36.882Z,11.81
2023-05-10T18:47:07.009Z,11.75
2023-05-10T18:49:52.834Z,11.70
2023-05-10T18:52:25.017Z,11.63
2023-05-10T18:54:59.024Z,11.62
2023-05-10T18:57:41.066Z,11.59
2023-05-10T19:00:23.238Z,11.56
2023-05-10T19:05:49.660Z,11.55
2023-05-10T19:08:21.311Z,11.53
2023-05-10T19:10:50.996Z,11.52
2023-05-10T19:13:30.119Z,11.54
2023-05-10T19:16:23.461Z,11.48
2023-05-10T19:18:54.380Z,11.51
2023-05-10T19:21:28.594Z,11.53
2023-05-10T19:24:08.329Z,11.55
2023-05-10T19:26:42.095Z,11.56
2023-05-10T19:29:14.029Z,11.57
2023-05-10T19:31:43.003Z,11.62
2023-05-10T19:34:12.184Z,11.62
2023-05-10T19:36:43.530Z,11.62
2023-05-10T19:39:14.575Z,11.61
2023-05-10T19:41:52.638Z,11.65
2023-05-10T19:44:25.308Z,11.66
2023-05-10T19:46:55.675Z,11.67
2023-05-10T19:49:23.373Z,11.69
2023-05-10T19:51:52.499Z,11.70
2023-05-10T19:54:22.042Z,11.68
2023-05-10T19:56:51.579Z,11.72
2023-05-10T19:59:23.079Z,11.73
2023-05-10T20:01:51.857Z,11.73
2023-05-10T20:04:21.326Z,11.74
2023-05-10T20:06:49.425Z,11.74
2023-05-10T20:09:18.133Z,11.74
2023-05-10T20:11:47.186Z,11.72
2023-05-10T20:14:18.167Z,11.74
2023-05-10T20:16:48.413Z,11.76
2023-05-10T20:19:56.155Z,11.75
2023-05-10T20:22:27.980Z,11.73
2023-05-10T20:24:56.321Z,11.72
2023-05-10T20:27:23.929Z,11.71
2023-05-10T20:29:51.786Z,11.73
2023-05-10T20:32:22.500Z,11.75
2023-05-10T20:34:56.430Z,11.76
2023-05-10T20:37:28.888Z,11.77
2023-05-10T20:40:06.769Z,11.76
2023-05-10T20:42:36.030Z,11.76
2023-05-10T20:45:05.766Z,11.74
2023-05-10T20:47:35.159Z,11.73
2023-05-10T20:50:07.568Z,11.72
2023-05-10T20:52:35.007Z,11.75
2023-05-10T20:55:03.779Z,11.75
2023-05-10T20:57:32.758Z,11.76
2023-05-10T21:00:01.435Z,11.77
2023-05-10T21:02:29.461Z,11.79
2023-05-10T21:05:03.538Z,11.76
2023-05-10T21:07:35.120Z,11.77
2023-05-10T21:10:05.975Z,11.77
2023-05-10T21:12:36.046Z,11.76
2023-05-10T21:15:10.779Z,11.75
2023-05-10T21:17:40.384Z,11.77
2023-05-10T21:20:16.599Z,11.77
2023-05-10T21:22:46.623Z,11.76
2023-05-10T21:25:17.815Z,11.83
2023-05-10T21:27:48.353Z,11.87
2023-05-10T21:30:16.432Z,11.90
2023-05-10T21:32:44.485Z,11.91
2023-05-10T21:35:12.009Z,11.92
2023-05-10T21:37:41.428Z,11.94
2023-05-10T21:40:14.159Z,11.96
2023-05-10T21:42:45.471Z,11.97
2023-05-10T21:45:20.695Z,11.97
2023-05-10T21:47:49.453Z,11.99
2023-05-10T21:50:17.760Z,11.98
2023-05-10T21:52:50.394Z,12.00
2023-05-10T21:55:19.721Z,12.01
2023-05-10T21:57:59.442Z,12.00
2023-05-10T22:00:26.977Z,12.02
2023-05-10T22:02:55.178Z,12.01
2023-05-10T22:05:23.571Z,12.01
2023-05-10T22:07:58.904Z,12.01
2023-05-10T22:10:30.106Z,11.98
2023-05-10T22:13:04.709Z,11.98
2023-05-10T22:15:36.651Z,11.97
2023-05-10T22:18:06.331Z,11.96
2023-05-10T22:20:36.698Z,11.94
2023-05-10T22:23:07.049Z,11.97
2023-05-10T22:25:35.006Z,11.96
2023-05-10T22:28:02.720Z,11.96
2023-05-10T22:30:33.185Z,11.96
2023-05-10T22:33:02.079Z,11.96
2023-05-10T22:35:30.336Z,11.96
2023-05-10T22:37:58.677Z,11.95
2023-05-10T22:40:26.923Z,11.96
2023-05-10T22:42:56.915Z,11.98
2023-05-10T22:45:25.781Z,11.99
2023-05-10T22:47:54.791Z,12.03
2023-05-10T22:50:22.567Z,12.03
2023-05-10T22:52:49.986Z,12.05
2023-05-10T22:55:20.804Z,12.05
2023-05-10T22:57:49.916Z,12.05
2023-05-10T23:00:17.967Z,12.01
2023-05-10T23:02:49.313Z,12.04
2023-05-10T23:05:20.300Z,12.06
2023-05-10T23:07:53.225Z,12.05
2023-05-10T23:10:21.413Z,12.06
2023-05-10T23:12:51.497Z,12.09
2023-05-10T23:15:26.653Z,12.06
2023-05-10T23:18:00.998Z,12.07
2023-05-10T23:20:29.185Z,12.02
2023-05-10T23:22:56.857Z,12.04
2023-05-10T23:25:24.214Z,12.01
2023-05-10T23:27:53.166Z,12.02
2023-05-10T23:30:20.788Z,11.99
2023-05-10T23:32:49.780Z,11.98
2023-05-10T23:35:17.447Z,11.97
2023-05-10T23:37:45.625Z,11.93
2023-05-10T23:40:17.517Z,11.90
2023-05-10T23:42:45.365Z,11.84
2023-05-10T23:45:13.478Z,11.84
2023-05-10T23:47:44.512Z,11.81
2023-05-10T23:50:14.396Z,11.78
2023-05-10T23:52:44.287Z,11.74
2023-05-10T23:55:12.231Z,11.70
2023-05-10T23:57:45.360Z,11.66
